createdAt,value
2023-05-11T00:00:30.648Z,100478.78
2023-05-11T00:02:59.481Z,100485.88
2023-05-11T00:05:28.589Z,100486.78
2023-05-11T00:07:57.322Z,100489.56
2023-05-11T00:10:26.037Z,100485.25
2023-05-11T00:12:54.780Z,100485.34
2023-05-11T00:15:23.555Z,100485.41
2023-05-11T00:17:53.637Z,100486.34
2023-05-11T00:20:23.843Z,100485.50
2023-05-11T00:22:52.613Z,100483.78
2023-05-11T00:25:21.399Z,100478.59
2023-05-11T00:27:50.149Z,100488.41
2023-05-11T00:30:19.332Z,100488.44
2023-05-11T00:32:49.012Z,100483.13
2023-05-11T00:35:19.372Z,100481.38
2023-05-11T00:37:48.413Z,100476.06
2023-05-11T00:40:17.453Z,100478.75
2023-05-11T00:42:46.319Z,100480.59
2023-05-11T00:45:15.059Z,100479.81
2023-05-11T00:47:43.924Z,100485.19
2023-05-11T00:50:12.925Z,100478.22
2023-05-11T00:52:44.581Z,100486.22
2023-05-11T00:55:15.003Z,100482.81
2023-05-11T00:57:44.565Z,100489.00
2023-05-11T01:00:14.454Z,100481.16
2023-05-11T01:02:43.495Z,100491.84
2023-05-11T01:05:12.693Z,100487.50
2023-05-11T01:07:49.690Z,100491.13
2023-05-11T01:10:26.500Z,100491.19
2023-05-11T01:13:02.669Z,100479.78
2023-05-11T01:15:37.152Z,100490.31
2023-05-11T01:18:17.704Z,100482.47
2023-05-11T01:20:49.606Z,100486.03
2023-05-11T01:23:55.402Z,100489.59
2023-05-11T01:26:50.465Z,100486.16
2023-05-11T01:29:46.179Z,100488.72
2023-05-11T01:32:20.759Z,100493.78
2023-05-11T01:35:01.439Z,100493.50
2023-05-11T01:37:32.499Z,100492.31
2023-05-11T01:40:06.270Z,100495.56
2023-05-11T01:42:48.511Z,100507.75
2023-05-11T01:45:18.218Z,100506.09
2023-05-11T01:47:52.072Z,100502.66
2023-05-11T01:50:23.212Z,100499.41
2023-05-11T01:52:54.022Z,100507.53
2023-05-11T01:55:24.730Z,100511.22
2023-05-11T01:57:55.606Z,100514.91
2023-05-11T02:00:38.811Z,100513.31
2023-05-11T02:03:11.426Z,100490.81
2023-05-11T02:05:41.695Z,100518.09
2023-05-11T02:08:11.491Z,100521.75
2023-05-11T02:10:42.708Z,100524.44
2023-05-11T02:13:12.643Z,100520.16
2023-05-11T02:15:44.148Z,100520.19
2023-05-11T02:18:16.793Z,100520.25
2023-05-11T02:20:47.856Z,100522.09
2023-05-11T02:23:18.111Z,100526.53
2023-05-11T02:25:48.246Z,100528.25
2023-05-11T02:28:17.057Z,100533.56
2023-05-11T02:30:48.027Z,100534.50
2023-05-11T02:33:24.981Z,100531.75
2023-05-11T02:35:56.130Z,100536.91
2023-05-11T02:38:33.559Z,100534.09
2023-05-11T02:41:07.324Z,100529.53
2023-05-11T02:43:40.726Z,100534.91
2023-05-11T02:46:14.413Z,100528.13
2023-05-11T02:48:48.470Z,100527.41
2023-05-11T02:51:20.705Z,100538.22
2023-05-11T02:53:55.792Z,100536.59
2023-05-11T02:56:26.096Z,100539.28
2023-05-11T02:58:56.970Z,100536.66
2023-05-11T03:01:30.869Z,100539.28
2023-05-11T03:04:01.638Z,100540.16
2023-05-11T03:06:33.251Z,100534.88
2023-05-11T03:09:03.440Z,100537.53
2023-05-11T03:11:34.768Z,100541.91
2023-05-11T03:14:04.033Z,100538.13
2023-05-11T03:16:33.652Z,100543.38
2023-05-11T03:19:05.372Z,100531.13
2023-05-11T03:21:35.444Z,100545.28
2023-05-11T03:24:07.536Z,100535.59
2023-05-11T03:26:37.544Z,100545.28
2023-05-11T03:29:08.596Z,100541.00
2023-05-11T03:31:40.050Z,100545.44
2023-05-11T03:34:10.549Z,100536.63
2023-05-11T03:36:43.847Z,100540.03
2023-05-11T03:39:14.075Z,100539.03
2023-05-11T03:41:44.133Z,100544.28
2023-05-11T03:44:15.150Z,100541.75
2023-05-11T03:46:50.489Z,100545.13
2023-05-11T03:49:22.211Z,100543.28
2023-05-11T03:51:51.439Z,100540.72
2023-05-11T03:54:20.446Z,100540.72
2023-05-11T03:56:49.261Z,100542.38
2023-05-11T03:59:19.324Z,100546.75
2023-05-11T04:01:51.632Z,100543.19
2023-05-11T04:04:21.985Z,100542.16
2023-05-11T04:06:52.519Z,100544.53
2023-05-11T04:09:24.040Z,100544.28
2023-05-11T04:11:53.410Z,100548.44
2023-05-11T04:14:23.444Z,100539.47
2023-05-11T04:16:52.317Z,100537.53
2023-05-11T04:19:22.495Z,100540.03
2023-05-11T04:21:51.226Z,100547.88
2023-05-11T04:24:19.958Z,100544.16
2023-05-11T04:26:48.676Z,100544.78
2023-05-11T04:29:17.362Z,100542.84
2023-05-11T04:31:46.121Z,100548.75
2023-05-11T04:34:14.936Z,100549.44
2023-05-11T04:36:47.888Z,100551.16
2023-05-11T04:39:17.225Z,100553.66
2023-05-11T04:41:46.091Z,100557.06
2023-05-11T04:44:14.952Z,100552.53
2023-05-11T04:46:43.741Z,100557.72
2023-05-11T04:49:12.544Z,100560.16
2023-05-11T04:51:41.846Z,100559.94
2023-05-11T04:54:12.478Z,100568.66
2023-05-11T04:56:41.444Z,100565.81
2023-05-11T04:59:11.374Z,100565.63
2023-05-11T05:01:40.251Z,100570.75
2023-05-11T05:04:09.197Z,100574.06
2023-05-11T05:06:38.303Z,100580.88
2023-05-11T05:09:07.119Z,100577.13
2023-05-11T05:11:37.753Z,100574.94
2023-05-11T05:14:06.524Z,100577.13
2023-05-11T05:16:35.314Z,100577.31
2023-05-11T05:19:04.456Z,100580.88
2023-05-11T05:21:35.738Z,100581.31
2023-05-11T05:24:06.931Z,100583.59
2023-05-11T05:26:37.121Z,100579.63
2023-05-11T05:29:06.532Z,100585.44
2023-05-11T05:31:35.934Z,100582.38
2023-05-11T05:34:05.049Z,100585.56
2023-05-11T05:36:33.931Z,100587.81
2023-05-11T05:39:03.810Z,100594.69
2023-05-11T05:41:33.501Z,100594.41
2023-05-11T05:44:04.397Z,100590.66
2023-05-11T05:46:33.711Z,100600.19
2023-05-11T05:49:02.832Z,100598.06
2023-05-11T05:51:32.799Z,100601.22
2023-05-11T05:54:01.785Z,100592.94
2023-05-11T05:56:32.044Z,100607.63
2023-05-11T05:59:01.052Z,100613.50
2023-05-11T06:01:31.502Z,100613.06
2023-05-11T06:04:00.419Z,100616.41
2023-05-11T06:06:29.356Z,100611.66
2023-05-11T06:08:58.049Z,100619.31
2023-05-11T06:11:27.395Z,100621.53
2023-05-11T06:13:56.207Z,100614.22
2023-05-11T06:16:26.955Z,100621.66
2023-05-11T06:18:57.344Z,100622.22
2023-05-11T06:21:26.201Z,100621.06
2023-05-11T06:23:54.968Z,100620.75
2023-05-11T06:26:25.295Z,100624.09
2023-05-11T06:28:54.923Z,100613.94
2023-05-11T06:31:24.399Z,100624.03
2023-05-11T06:33:54.144Z,100627.31
2023-05-11T06:36:28.428Z,100620.00
2023-05-11T06:38:57.264Z,100620.34
2023-05-11T06:41:26.134Z,100627.91
2023-05-11T06:43:55.043Z,100627.50
2023-05-11T06:46:29.642Z,100625.25
2023-05-11T06:48:58.610Z,100628.25
2023-05-11T06:51:28.752Z,100634.84
2023-05-11T06:53:57.475Z,100634.56
2023-05-11T06:56:26.278Z,100634.06
2023-05-11T06:58:54.995Z,100635.53
2023-05-11T07:01:23.744Z,100632.44
2023-05-11T07:03:55.504Z,100637.38
2023-05-11T07:06:24.332Z,100631.53
2023-05-11T07:08:54.536Z,100641.78
2023-05-11T07:11:23.343Z,100641.66
2023-05-11T07:13:52.056Z,100646.69
2023-05-11T07:16:20.771Z,100618.69
2023-05-11T07:18:49.316Z,100641.84
2023-05-11T07:21:18.066Z,100642.38
2023-05-11T07:23:46.862Z,100637.75
2023-05-11T07:26:16.896Z,100638.41
2023-05-11T07:28:45.967Z,100641.50
2023-05-11T07:31:14.605Z,100622.13
2023-05-11T07:33:43.027Z,100639.84
2023-05-11T07:36:11.952Z,100645.91
2023-05-11T07:38:41.223Z,100648.19
2023-05-11T07:41:12.297Z,100649.63
2023-05-11T07:43:42.854Z,100651.16
2023-05-11T07:46:11.746Z,100650.81
2023-05-11T07:48:40.470Z,100660.22
2023-05-11T07:51:09.229Z,100654.72
2023-05-11T07:53:37.645Z,100664.38
2023-05-11T07:56:06.971Z,100661.56
2023-05-11T07:58:36.069Z,100670.31
2023-05-11T08:01:07.208Z,100666.53
2023-05-11T08:03:35.740Z,100668.13
2023-05-11T08:06:04.451Z,100632.56
2023-05-11T08:08:33.176Z,100664.31
2023-05-11T08:11:03.330Z,100671.25
2023-05-11T08:13:31.783Z,100673.75
2023-05-11T08:16:00.522Z,100661.97
2023-05-11T08:18:31.252Z,100659.94
2023-05-11T08:21:00.184Z,100660.38
2023-05-11T08:23:28.898Z,100660.00
2023-05-11T08:25:57.863Z,100664.78
2023-05-11T08:28:26.560Z,100670.13
2023-05-11T08:30:59.946Z,100666.00
2023-05-11T08:36:01.671Z,100675.63
2023-05-11T08:38:30.585Z,100666.78
2023-05-11T08:40:59.098Z,100668.53
2023-05-11T08:43:30.408Z,100679.06
2023-05-11T08:46:03.869Z,100679.84
2023-05-11T08:48:34.720Z,100673.13
2023-05-11T08:51:04.616Z,100667.59
2023-05-11T08:53:33.743Z,100675.28
2023-05-11T08:56:06.805Z,100676.88
2023-05-11T08:58:37.938Z,100680.25
2023-05-11T09:01:08.784Z,100678.69
2023-05-11T09:03:41.111Z,100670.72
2023-05-11T09:06:11.643Z,100670.72
2023-05-11T09:08:40.825Z,100665.94
2023-05-11T09:11:10.049Z,100674.75
2023-05-11T09:13:39.041Z,100665.59
2023-05-11T09:16:19.601Z,100670.25
2023-05-11T09:19:03.083Z,100670.88
2023-05-11T09:21:32.509Z,100676.84
2023-05-11T09:24:01.506Z,100662.97
2023-05-11T09:26:30.397Z,100665.41
2023-05-11T09:29:03.852Z,100671.38
2023-05-11T09:31:43.830Z,100666.00
2023-05-11T09:34:15.758Z,100664.00
2023-05-11T09:36:45.423Z,100669.53
2023-05-11T09:39:16.668Z,100669.31
2023-05-11T09:41:45.997Z,100669.88
2023-05-11T09:44:17.058Z,100671.59
2023-05-11T09:46:46.508Z,100672.50
2023-05-11T09:49:16.645Z,100673.84
2023-05-11T09:51:45.124Z,100670.66
2023-05-11T09:54:22.121Z,100667.66
2023-05-11T09:56:54.240Z,100678.53
2023-05-11T09:59:38.931Z,100669.47
2023-05-11T10:02:23.374Z,100666.38
2023-05-11T10:04:55.112Z,100671.53
2023-05-11T10:07:29.803Z,100665.88
2023-05-11T10:10:01.692Z,100665.13
2023-05-11T10:12:33.522Z,100672.19
2023-05-11T10:15:04.404Z,100667.88
2023-05-11T10:17:33.713Z,100661.88
2023-05-11T10:20:06.178Z,100667.63
2023-05-11T10:22:35.128Z,100665.63
2023-05-11T10:25:06.106Z,100666.25
2023-05-11T10:27:35.080Z,100660.94
2023-05-11T10:30:04.968Z,100654.91
2023-05-11T10:32:37.362Z,100659.69
2023-05-11T10:35:08.996Z,100652.06
2023-05-11T10:37:37.942Z,100660.69
2023-05-11T10:40:08.374Z,100662.38
2023-05-11T10:43:05.570Z,100662.94
2023-05-11T10:45:43.584Z,100659.13
2023-05-11T10:48:37.802Z,100661.72
2023-05-11T10:51:34.900Z,100661.91
2023-05-11T10:54:16.240Z,100657.88
2023-05-11T10:57:04.852Z,100657.22
2023-05-11T11:00:10.285Z,100659.53
2023-05-11T11:02:39.393Z,100654.66
2023-05-11T11:05:10.846Z,100653.78
2023-05-11T11:08:01.088Z,100646.66
2023-05-11T11:10:35.063Z,100649.84
2023-05-11T11:13:08.092Z,100660.56
2023-05-11T11:16:14.518Z,100654.16
2023-05-11T11:18:45.572Z,100654.88
2023-05-11T11:21:15.904Z,100656.91
2023-05-11T11:23:50.240Z,100661.19
2023-05-11T11:26:40.789Z,100655.91
2023-05-11T11:29:10.926Z,100655.88
2023-05-11T11:31:40.582Z,100660.94
2023-05-11T11:34:39.882Z,100659.16
2023-05-11T11:37:10.048Z,100664.50
2023-05-11T11:40:13.887Z,100680.16
2023-05-11T11:42:44.774Z,100675.09
2023-05-11T11:45:33.506Z,100678.59
2023-05-11T11:48:13.256Z,100680.19
2023-05-11T11:50:48.082Z,100670.31
2023-05-11T11:54:05.697Z,100670.50
2023-05-11T11:56:43.893Z,100661.94
2023-05-11T11:59:15.429Z,100621.97
2023-05-11T12:01:45.886Z,100657.09
2023-05-11T12:04:44.078Z,100650.84
2023-05-11T12:07:13.880Z,100659.06
2023-05-11T12:09:42.643Z,100655.56
2023-05-11T12:12:13.113Z,100659.91
2023-05-11T12:14:48.800Z,100659.28
2023-05-11T12:17:25.303Z,100661.84
2023-05-11T12:19:54.223Z,100652.09
2023-05-11T12:22:26.905Z,100662.63
2023-05-11T12:25:00.314Z,100661.97
2023-05-11T12:27:30.748Z,100657.56
2023-05-11T12:30:00.346Z,100651.25
2023-05-11T12:32:30.511Z,100659.78
2023-05-11T12:35:02.257Z,100658.94
2023-05-11T12:37:31.823Z,100659.06
2023-05-11T12:40:01.559Z,100664.34
2023-05-11T12:42:35.129Z,100655.88
2023-05-11T12:45:04.692Z,100649.31
2023-05-11T12:47:36.411Z,100657.16
2023-05-11T12:50:06.283Z,100650.41
2023-05-11T12:52:35.104Z,100645.63
2023-05-11T12:55:03.871Z,100643.81
2023-05-11T12:57:33.960Z,100648.09
2023-05-11T13:00:13.974Z,100651.88
2023-05-11T13:02:48.176Z,100655.47
2023-05-11T13:05:19.521Z,100651.09
2023-05-11T13:07:48.721Z,100652.03
2023-05-11T13:10:17.493Z,100649.25
2023-05-11T13:12:54.726Z,100640.72
2023-05-11T13:15:25.499Z,100647.50
2023-05-11T13:17:59.942Z,100637.75
2023-05-11T13:20:30.935Z,100649.94
2023-05-11T13:23:07.866Z,100642.66
2023-05-11T13:25:53.230Z,100648.75
2023-05-11T13:28:25.247Z,100644.53
2023-05-11T13:31:00.186Z,100638.00
2023-05-11T13:33:29.368Z,100644.63
2023-05-11T13:35:58.547Z,100639.38
2023-05-11T13:38:27.283Z,100645.28
2023-05-11T13:40:56.617Z,100642.44
2023-05-11T13:43:26.742Z,100642.16
2023-05-11T13:45:55.964Z,100642.88
2023-05-11T13:48:24.788Z,100639.75
2023-05-11T13:50:53.483Z,100631.66
2023-05-11T13:53:22.312Z,100642.06
2023-05-11T13:55:51.063Z,100643.41
2023-05-11T13:58:19.826Z,100634.22
2023-05-11T14:01:06.497Z,100633.50
2023-05-11T14:03:36.394Z,100632.94
2023-05-11T14:06:05.541Z,100626.94
2023-05-11T14:08:34.278Z,100627.81
2023-05-11T14:11:02.994Z,100621.59
2023-05-11T14:13:31.839Z,100621.94
2023-05-11T14:16:02.438Z,100622.19
2023-05-11T14:18:31.343Z,100626.63
2023-05-11T14:21:00.753Z,100617.47
2023-05-11T14:23:29.542Z,100626.31
2023-05-11T14:25:58.319Z,100623.81
2023-05-11T14:28:27.242Z,100624.00
2023-05-11T14:30:56.893Z,100607.63
2023-05-11T14:33:27.054Z,100612.28
2023-05-11T14:35:55.938Z,100605.56
2023-05-11T14:38:24.833Z,100615.38
2023-05-11T14:40:53.677Z,100609.56
2023-05-11T14:43:22.693Z,100606.41
2023-05-11T14:45:51.598Z,100604.72
2023-05-11T14:48:20.428Z,100599.94
2023-05-11T14:50:50.665Z,100604.03
2023-05-11T14:53:19.897Z,100600.31
2023-05-11T14:55:48.734Z,100608.56
2023-05-11T14:58:17.555Z,100606.13
2023-05-11T15:00:46.251Z,100602.22
2023-05-11T15:03:15.107Z,100605.28
2023-05-11T15:05:43.791Z,100608.44
2023-05-11T15:08:28.507Z,100608.41
2023-05-11T15:10:58.365Z,100608.16
2023-05-11T15:13:27.181Z,100607.44
2023-05-11T15:15:56.390Z,100619.88
2023-05-11T15:18:25.238Z,100619.97
2023-05-11T15:20:54.077Z,100614.88
2023-05-11T15:23:24.196Z,100617.28
2023-05-11T15:25:53.100Z,100622.50
2023-05-11T15:28:21.845Z,100621.69
2023-05-11T15:30:50.587Z,100617.84
2023-05-11T15:33:20.010Z,100557.41
2023-05-11T15:35:50.289Z,100616.06
2023-05-11T15:38:19.451Z,100622.81
2023-05-11T15:40:49.803Z,100621.22
2023-05-11T15:43:18.756Z,100617.19
2023-05-11T15:45:48.728Z,100616.06
2023-05-11T15:48:17.743Z,100618.78
2023-05-11T15:50:46.805Z,100618.72
2023-05-11T15:53:16.615Z,100618.56
2023-05-11T15:55:46.439Z,100617.94
2023-05-11T15:58:16.742Z,100614.53
2023-05-11T16:00:45.797Z,100621.66
2023-05-11T16:03:15.263Z,100620.41
2023-05-11T16:05:44.666Z,100614.03
2023-05-11T16:08:14.087Z,100625.06
2023-05-11T16:10:50.424Z,100623.66
2023-05-11T16:13:28.720Z,100622.56
2023-05-11T16:16:10.120Z,100465.22
2023-05-11T16:18:39.660Z,100631.56
2023-05-11T16:21:08.683Z,100626.56
2023-05-11T16:23:38.642Z,100623.91
2023-05-11T16:26:07.501Z,100505.56
2023-05-11T16:28:39.159Z,100483.03
2023-05-11T16:31:10.690Z,100491.50
2023-05-11T16:33:41.494Z,100601.97
2023-05-11T16:36:11.372Z,100623.19
2023-05-11T16:38:39.990Z,100632.44
2023-05-11T16:41:08.449Z,100627.63
2023-05-11T16:43:41.815Z,100628.69
2023-05-11T16:46:11.429Z,100613.00
2023-05-11T16:48:40.035Z,100608.00
2023-05-11T16:51:08.770Z,100599.25
2023-05-11T16:53:37.271Z,100616.25
2023-05-11T16:56:07.557Z,100616.75
2023-05-11T16:58:39.385Z,100566.81
2023-05-11T17:01:08.284Z,100624.34
2023-05-11T17:03:36.883Z,100628.38
2023-05-11T17:06:10.094Z,100634.19
2023-05-11T17:08:38.985Z,100629.31
2023-05-11T17:11:07.528Z,100631.69
2023-05-11T17:13:37.327Z,100633.03
2023-05-11T17:16:06.327Z,100637.03
2023-05-11T17:18:35.062Z,100632.03
2023-05-11T17:21:03.762Z,100629.66
2023-05-11T17:23:32.776Z,100592.25
2023-05-11T17:26:01.311Z,100623.06
2023-05-11T17:28:29.756Z,100628.28
2023-05-11T17:30:59.787Z,100632.28
2023-05-11T17:33:33.753Z,100640.78
2023-05-11T17:36:06.531Z,100630.81
2023-05-11T17:38:35.368Z,100638.88
2023-05-11T17:41:05.890Z,100545.56
2023-05-11T17:43:35.894Z,100645.22
2023-05-11T17:46:06.017Z,100529.78
2023-05-11T17:48:36.292Z,100631.75
2023-05-11T17:51:05.016Z,100654.78
2023-05-11T17:53:33.549Z,100650.78
2023-05-11T17:56:02.362Z,100648.59
2023-05-11T17:58:30.782Z,100645.56
2023-05-11T18:01:00.115Z,100633.84
2023-05-11T18:03:30.132Z,100624.03
2023-05-11T18:05:59.164Z,100654.84
2023-05-11T18:08:28.681Z,100657.47
2023-05-11T18:10:57.572Z,100660.38
2023-05-11T18:13:28.655Z,100651.78
2023-05-11T18:15:58.604Z,100654.09
2023-05-11T18:18:27.547Z,100653.53
2023-05-11T18:20:57.546Z,100647.75
2023-05-11T18:23:26.469Z,100656.34
2023-05-11T18:25:55.013Z,100658.88
2023-05-11T18:28:23.790Z,100663.03
2023-05-11T18:30:52.574Z,100665.34
2023-05-11T18:33:21.159Z,100611.31
2023-05-11T18:35:51.410Z,100668.63
2023-05-11T18:38:21.514Z,100649.69
2023-05-11T18:40:53.230Z,100649.16
2023-05-11T18:43:21.994Z,100682.13
2023-05-11T18:45:52.802Z,100683.53
2023-05-11T18:48:21.474Z,100659.78
2023-05-11T18:50:55.815Z,100614.06
2023-05-11T18:53:25.673Z,100677.81
2023-05-11T18:55:54.501Z,100693.03
2023-05-11T18:58:23.623Z,100694.31
2023-05-11T19:00:52.981Z,100704.50
2023-05-11T19:03:22.910Z,100697.88
2023-05-11T19:05:52.477Z,100673.34
2023-05-11T19:08:21.524Z,100706.19
2023-05-11T19:10:51.402Z,100711.34
2023-05-11T19:13:20.182Z,100711.03
2023-05-11T19:15:49.971Z,100709.88
2023-05-11T19:18:18.789Z,100707.88
2023-05-11T19:20:47.593Z,100705.75
2023-05-11T19:23:17.054Z,100711.53
2023-05-11T19:25:45.842Z,100709.16
2023-05-11T19:28:15.802Z,100713.50
2023-05-11T19:30:44.559Z,100717.13
2023-05-11T19:33:13.492Z,100723.19
2023-05-11T19:35:42.280Z,100725.19
2023-05-11T19:38:11.040Z,100725.50
2023-05-11T19:43:13.394Z,100726.50
2023-05-11T19:45:45.376Z,100691.53
2023-05-11T19:48:14.680Z,100727.19
2023-05-11T19:50:43.309Z,100717.28
2023-05-11T19:53:12.324Z,100711.81
2023-05-11T19:55:41.364Z,100715.41
2023-05-11T19:58:10.126Z,100729.00
2023-05-11T20:00:41.073Z,100736.63
2023-05-11T20:03:16.073Z,100735.50
2023-05-11T20:05:45.575Z,100740.56
2023-05-11T20:08:14.799Z,100717.78
2023-05-11T20:10:43.337Z,100737.66
2023-05-11T20:13:11.834Z,100736.72
2023-05-11T20:15:40.818Z,100739.25
2023-05-11T20:18:11.817Z,100745.47
2023-05-11T20:20:40.995Z,100747.16
2023-05-11T20:23:09.930Z,100741.00
2023-05-11T20:25:43.728Z,100749.16
2023-05-11T20:28:12.980Z,100750.19
2023-05-11T20:30:41.530Z,100703.38
2023-05-11T20:35:42.979Z,100704.09
2023-05-11T20:38:14.368Z,100498.31
2023-05-11T20:40:42.843Z,100646.97
2023-05-11T20:43:13.779Z,100732.31
2023-05-11T20:45:43.683Z,100741.09
2023-05-11T20:48:17.038Z,100615.19
2023-05-11T20:50:53.051Z,100736.16
2023-05-11T20:53:21.676Z,100748.13
2023-05-11T20:55:50.957Z,100741.03
2023-05-11T20:58:19.917Z,100747.19
2023-05-11T21:00:49.579Z,100682.84
2023-05-11T21:03:21.468Z,100744.47
2023-05-11T21:05:50.427Z,100741.84
2023-05-11T21:08:19.149Z,100740.13
2023-05-11T21:10:47.645Z,100742.97
2023-05-11T21:13:27.723Z,100699.25
2023-05-11T21:15:59.091Z,100657.63
2023-05-11T21:18:35.160Z,100726.59
2023-05-11T21:21:04.534Z,100543.78
2023-05-11T21:23:33.130Z,100731.50
2023-05-11T21:26:02.113Z,100741.31
2023-05-11T21:28:32.665Z,100740.03
2023-05-11T21:31:01.429Z,100737.97
2023-05-11T21:33:31.297Z,100668.69
2023-05-11T21:36:02.343Z,100742.31
2023-05-11T21:38:32.376Z,100747.00
2023-05-11T21:41:03.546Z,100736.69
2023-05-11T21:43:33.043Z,100739.41
2023-05-11T21:46:01.949Z,100732.69
2023-05-11T21:48:31.899Z,100725.34
2023-05-11T21:51:00.337Z,100706.47
2023-05-11T21:53:29.065Z,100740.38
2023-05-11T21:55:57.588Z,100752.16
2023-05-11T21:58:26.318Z,100750.72
2023-05-11T22:00:55.281Z,100711.84
2023-05-11T22:03:25.402Z,100742.41
2023-05-11T22:05:58.119Z,100759.47
2023-05-11T22:08:27.027Z,100706.66
2023-05-11T22:10:55.456Z,100751.16
2023-05-11T22:13:24.327Z,100761.09
2023-05-11T22:15:53.297Z,100762.09
2023-05-11T22:18:23.608Z,100763.03
2023-05-11T22:20:52.236Z,100710.19
2023-05-11T22:23:22.332Z,100759.13
2023-05-11T22:25:51.187Z,100760.06
2023-05-11T22:28:19.752Z,100508.75
2023-05-11T22:30:48.208Z,100710.94
2023-05-11T22:33:16.992Z,100762.56
2023-05-11T22:35:45.824Z,100764.59
2023-05-11T22:38:16.845Z,100757.72
2023-05-11T22:40:46.740Z,100736.09
2023-05-11T22:43:16.658Z,100750.72
2023-05-11T22:45:45.171Z,100761.94
2023-05-11T22:48:14.042Z,100765.47
2023-05-11T22:50:47.931Z,100741.31
2023-05-11T22:53:19.901Z,100770.09
2023-05-11T22:55:50.245Z,100764.72
2023-05-11T22:58:18.672Z,100765.09
2023-05-11T23:00:47.458Z,100609.31
2023-05-11T23:03:16.450Z,100762.53
2023-05-11T23:05:45.013Z,100771.19
2023-05-11T23:08:13.753Z,100768.69
2023-05-11T23:10:43.256Z,100596.56
2023-05-11T23:13:15.466Z,100765.28
2023-05-11T23:15:44.357Z,100778.53
2023-05-11T23:18:13.330Z,100774.78
2023-05-11T23:20:42.123Z,100773.22
2023-05-11T23:23:10.651Z,100767.44
2023-05-11T23:25:39.193Z,100777.19
2023-05-11T23:28:11.454Z,100778.94
2023-05-11T23:30:41.775Z,100776.31
2023-05-11T23:33:10.648Z,100773.75
2023-05-11T23:35:40.516Z,100774.63
2023-05-11T23:38:09.348Z,100771.09
2023-05-11T23:40:38.638Z,100774.72
2023-05-11T23:43:07.522Z,100769.50
2023-05-11T23:45:38.004Z,100769.63
2023-05-11T23:48:08.666Z,100773.19
2023-05-11T23:50:39.499Z,100772.22
2023-05-11T23:53:08.285Z,100771.53
2023-05-11T23:55:37.022Z,100771.41
2023-05-11T23:58:05.790Z,100759.84
